Time;durP1;ratioP1;P1;durP2;ratioP2;P2;SDS_P1;SDS_P2;PMS_P1;PMS_P2;Temp;Humidity;BMP_temperature;BMP_pressure;BME280_temperature;BME280_humidity;BME280_pressure;Samples;Min_cycle;Max_cycle;Signal;HPM_P1;HPM_P2
2023/12/31 00:00:28;;;;;;;20.60;12.85;;;;;;;11.15;65.22;101000.97;5087868;28;20491;-75
2023/12/31 00:02:53;;;;;;;23.25;13.30;;;;;;;11.35;65.39;101027.19;5088445;28;20404;-74
2023/12/31 00:05:19;;;;;;;18.67;12.43;;;;;;;11.39;65.10;101019.72;5088298;28;21049;-75
2023/12/31 00:07:45;;;;;;;22.35;12.23;;;;;;;11.42;64.47;101016.78;5093523;28;20519;-76
2023/12/31 00:10:11;;;;;;;15.07;11.63;;;;;;;11.47;64.48;101022.66;5094206;28;20597;-75
2023/12/31 00:12:36;;;;;;;20.20;12.32;;;;;;;11.53;64.39;101018.66;5088904;28;20039;-76
2023/12/31 00:15:03;;;;;;;15.82;11.25;;;;;;;11.64;64.24;101027.59;5087800;28;20052;-76
2023/12/31 00:17:29;;;;;;;18.55;11.05;;;;;;;11.70;64.17;101032.53;5088157;28;20627;-74
2023/12/31 00:19:55;;;;;;;17.05;11.80;;;;;;;11.69;63.88;101030.75;5087675;28;20119;-75
2023/12/31 00:22:21;;;;;;;17.98;11.02;;;;;;;11.78;63.92;101027.38;5087867;28;20157;-77
2023/12/31 00:24:46;;;;;;;15.20;10.85;;;;;;;11.82;62.85;101026.16;5087737;28;20024;-75
2023/12/31 00:27:12;;;;;;;21.08;11.45;;;;;;;11.67;63.05;101005.78;5087479;28;20049;-74
2023/12/31 00:29:37;;;;;;;25.83;11.38;;;;;;;11.87;63.02;101034.72;5087874;28;20024;-75
2023/12/31 00:32:03;;;;;;;17.17;10.63;;;;;;;11.85;62.76;101028.59;5087698;28;20032;-75
2023/12/31 00:34:29;;;;;;;15.52;10.07;;;;;;;11.94;62.92;101033.25;5087774;28;20055;-74
2023/12/31 00:36:54;;;;;;;15.60;10.07;;;;;;;11.75;62.71;101013.28;5087471;28;20039;-76
2023/12/31 00:39:20;;;;;;;17.23;11.10;;;;;;;11.93;62.92;101038.75;5088109;28;20024;-75
2023/12/31 00:41:46;;;;;;;16.63;10.70;;;;;;;11.78;62.54;101019.28;5087957;28;20028;-76
2023/12/31 00:44:11;;;;;;;17.52;11.25;;;;;;;11.91;62.65;101041.59;5087887;28;20048;-75
2023/12/31 00:46:37;;;;;;;17.48;11.43;;;;;;;11.82;62.68;101023.44;5087798;28;20050;-75
2023/12/31 00:49:02;;;;;;;16.65;11.65;;;;;;;11.98;62.63;101042.81;5088177;28;20032;-75
2023/12/31 00:51:28;;;;;;;18.35;12.35;;;;;;;12.02;62.40;101058.75;5088023;28;20118;-76
2023/12/31 00:53:53;;;;;;;29.25;12.93;;;;;;;12.04;62.41;101048.69;5087822;28;20020;-76
2023/12/31 00:56:19;;;;;;;18.63;11.85;;;;;;;12.02;62.16;101044.25;5088457;28;20028;-75
2023/12/31 00:58:44;;;;;;;16.45;11.23;;;;;;;12.09;61.99;101043.75;5096565;28;20031;-76
2023/12/31 01:01:10;;;;;;;18.10;12.70;;;;;;;12.14;61.76;101057.75;5095038;28;20032;-76
2023/12/31 01:03:35;;;;;;;16.42;10.68;;;;;;;12.13;61.71;101050.63;5087446;28;20028;-74
2023/12/31 01:06:05;;;;;;;22.65;11.05;;;;;;;12.13;61.77;101039.84;5087835;28;20487;-76
2023/12/31 01:08:30;;;;;;;18.67;12.18;;;;;;;12.03;61.76;101031.63;5087344;28;20078;-75
2023/12/31 01:10:56;;;;;;;20.48;10.88;;;;;;;12.11;61.71;101058.00;5089599;28;20495;-75
2023/12/31 01:13:21;;;;;;;16.13;11.10;;;;;;;12.08;61.45;101055.56;5091102;28;20107;-76
2023/12/31 01:15:47;;;;;;;14.77;11.00;;;;;;;11.93;61.67;101031.53;5090816;28;20110;-76
2023/12/31 01:18:12;;;;;;;18.33;12.88;;;;;;;12.05;61.74;101055.78;5090851;28;20110;-76
2023/12/31 01:20:38;;;;;;;24.92;13.10;;;;;;;12.04;62.09;101056.78;5090734;28;20032;-76
2023/12/31 01:23:03;;;;;;;21.00;12.70;;;;;;;12.08;61.81;101052.84;5090805;28;20035;-75
2023/12/31 01:25:29;;;;;;;21.73;12.00;;;;;;;12.09;62.03;101059.94;5090274;28;20428;-75
2023/12/31 01:27:55;;;;;;;23.10;13.00;;;;;;;12.06;62.01;101055.66;5090497;28;20016;-75
2023/12/31 01:30:24;;;;;;;17.02;11.52;;;;;;;12.04;61.68;101045.97;5090551;28;20028;-77
2023/12/31 01:32:50;;;;;;;24.60;12.38;;;;;;;12.02;62.17;101037.16;5071751;28;20106;-77
2023/12/31 01:35:18;;;;;;;23.40;11.07;;;;;;;12.16;62.04;101055.78;5090676;28;20094;-77
2023/12/31 01:37:45;;;;;;;15.85;11.02;;;;;;;12.13;61.49;101056.88;5090376;28;20107;-74
2023/12/31 01:40:10;;;;;;;20.23;11.60;;;;;;;12.13;61.38;101061.41;5090933;28;20028;-75
2023/12/31 01:42:36;;;;;;;16.85;11.63;;;;;;;12.15;61.64;101062.13;5090521;28;20031;-76
2023/12/31 01:45:03;;;;;;;13.90;9.93;;;;;;;11.99;61.41;101031.03;5090696;28;20082;-75
2023/12/31 01:47:29;;;;;;;17.35;10.38;;;;;;;12.08;61.70;101059.06;5091323;28;20028;-76
2023/12/31 01:49:55;;;;;;;15.07;10.02;;;;;;;12.04;61.85;101052.25;5094302;28;20043;-77
2023/12/31 01:52:22;;;;;;;12.63;9.98;;;;;;;12.06;61.35;101057.50;5095966;28;20032;-76
2023/12/31 01:54:47;;;;;;;13.77;9.90;;;;;;;12.00;61.81;101048.94;5090194;28;20072;-76
2023/12/31 01:57:15;;;;;;;14.38;10.57;;;;;;;11.95;62.05;101048.44;5090237;28;20028;-75
2023/12/31 01:59:41;;;;;;;15.68;9.80;;;;;;;11.75;62.08;101022.22;5104670;28;20051;-75
2023/12/31 02:02:07;;;;;;;21.90;11.35;;;;;;;11.88;62.44;101055.31;5088607;28;20420;-76
2023/12/31 02:04:33;;;;;;;12.48;10.23;;;;;;;11.88;61.94;101055.31;5089604;28;20028;-74
2023/12/31 02:07:02;;;;;;;16.00;10.02;;;;;;;11.83;62.87;101054.78;5089917;28;20020;-77
2023/12/31 02:09:28;;;;;;;15.35;10.00;;;;;;;11.81;62.19;101056.75;5089984;28;20035;-75
2023/12/31 02:11:55;;;;;;;13.30;8.98;;;;;;;11.76;63.08;101048.19;5089560;28;20099;-75
2023/12/31 02:14:20;;;;;;;12.93;9.35;;;;;;;11.76;62.91;101045.50;5089609;28;20089;-76
2023/12/31 02:16:46;;;;;;;16.95;9.93;;;;;;;11.62;62.88;101018.75;5089400;28;20028;-75
2023/12/31 02:19:11;;;;;;;14.25;9.25;;;;;;;11.80;62.97;101052.34;5089572;28;20032;-75
2023/12/31 02:21:37;;;;;;;12.65;8.88;;;;;;;11.79;63.11;101053.34;5087619;28;20116;-76
2023/12/31 02:24:03;;;;;;;17.48;10.73;;;;;;;11.58;63.44;101009.22;5089702;28;20081;-74
2023/12/31 02:26:31;;;;;;;15.43;9.73;;;;;;;11.72;63.43;101035.94;5089569;28;20128;-75
2023/12/31 02:28:57;;;;;;;17.10;10.32;;;;;;;11.70;63.14;101048.69;5070118;28;20082;-77
2023/12/31 02:31:22;;;;;;;15.13;9.60;;;;;;;11.61;63.04;101033.22;5090175;28;20052;-75
2023/12/31 02:33:48;;;;;;;13.88;9.95;;;;;;;11.65;63.01;101040.06;5089805;28;20043;-77
2023/12/31 02:36:13;;;;;;;15.60;10.82;;;;;;;11.63;63.15;101033.09;5089785;28;20474;-75
2023/12/31 02:38:40;;;;;;;15.07;10.25;;;;;;;11.70;62.85;101047.81;5072253;28;20132;-75
2023/12/31 02:41:05;;;;;;;15.02;11.18;;;;;;;11.64;63.47;101037.50;5095956;28;20067;-76
2023/12/31 02:43:31;;;;;;;15.40;10.82;;;;;;;11.73;63.48;101045.75;5092125;28;20476;-75
2023/12/31 02:45:57;;;;;;;17.92;11.35;;;;;;;11.60;63.54;101025.25;5089105;28;20099;-75
2023/12/31 02:48:22;;;;;;;21.60;13.18;;;;;;;11.78;62.70;101064.22;5089449;28;20024;-75
2023/12/31 02:50:48;;;;;;;18.33;12.80;;;;;;;11.68;62.62;101055.97;5088904;28;20589;-76
2023/12/31 02:53:13;;;;;;;28.00;15.32;;;;;;;11.65;62.58;101072.38;5089178;28;20032;-75
2023/12/31 02:55:39;;;;;;;26.70;16.63;;;;;;;11.43;62.48;101067.00;5088593;28;20107;-76
2023/12/31 02:58:04;;;;;;;32.85;17.35;;;;;;;11.27;63.46;101075.41;5088816;28;20027;-76
2023/12/31 03:00:30;;;;;;;27.63;18.15;;;;;;;11.25;63.29;101068.41;5088851;28;20024;-77
2023/12/31 03:02:55;;;;;;;31.23;18.65;;;;;;;11.07;63.48;101072.53;5088960;28;20059;-77
2023/12/31 03:05:21;;;;;;;29.25;17.83;;;;;;;11.06;64.46;101085.13;5089098;28;20103;-74
2023/12/31 03:07:46;;;;;;;27.40;17.90;;;;;;;11.06;64.49;101089.63;5088480;28;20044;-76
2023/12/31 03:10:12;;;;;;;28.77;19.23;;;;;;;11.02;64.33;101094.41;5088598;28;20066;-75
2023/12/31 03:12:37;;;;;;;37.10;17.23;;;;;;;10.98;64.59;101097.44;5088375;28;20032;-75
2023/12/31 03:15:03;;;;;;;21.70;16.48;;;;;;;10.84;64.89;101080.50;5088464;28;20027;-75
2023/12/31 03:17:29;;;;;;;25.85;16.90;;;;;;;10.81;64.98;101086.13;5088158;28;20035;-76
2023/12/31 03:19:55;;;;;;;19.83;15.05;;;;;;;10.78;65.31;101074.72;5088775;28;20024;-76
2023/12/31 03:22:20;;;;;;;25.15;15.45;;;;;;;10.68;65.48;101053.03;5088483;28;20032;-76
2023/12/31 03:24:46;;;;;;;20.83;13.63;;;;;;;10.77;65.15;101068.47;5088695;28;20454;-76
2023/12/31 03:27:11;;;;;;;22.00;15.35;;;;;;;10.79;65.78;101085.34;5088143;28;20067;-76
2023/12/31 03:29:37;;;;;;;26.35;14.90;;;;;;;10.75;65.56;101085.72;5089087;28;20043;-77
2023/12/31 03:32:03;;;;;;;22.08;13.75;;;;;;;10.66;65.95;101076.50;5090664;28;20034;-76
2023/12/31 03:34:29;;;;;;;25.48;13.93;;;;;;;10.69;66.08;101087.03;5091621;28;20024;-75
2023/12/31 03:36:55;;;;;;;21.85;12.25;;;;;;;10.60;66.13;101073.41;5092578;28;20024;-75
2023/12/31 03:39:20;;;;;;;80.35;17.95;;;;;;;10.77;66.17;101097.19;5088426;28;20024;-76
2023/12/31 03:41:47;;;;;;;25.30;14.18;;;;;;;10.83;66.28;101107.50;5087959;28;20024;-78
2023/12/31 03:44:12;;;;;;;30.10;15.05;;;;;;;10.81;66.39;101107.63;5087866;28;20035;-75
2023/12/31 03:46:38;;;;;;;26.83;14.68;;;;;;;10.88;66.12;101108.03;5087951;28;20020;-75
2023/12/31 03:49:04;;;;;;;19.20;13.43;;;;;;;10.91;66.10;101114.06;5086694;28;20510;-76
2023/12/31 03:51:29;;;;;;;22.85;14.82;;;;;;;10.89;65.97;101116.00;5088119;28;20106;-75
2023/12/31 03:53:55;;;;;;;23.02;13.85;;;;;;;10.89;65.99;101107.91;5085430;28;20048;-75
2023/12/31 03:56:20;;;;;;;22.88;14.25;;;;;;;10.69;66.51;101078.09;5087998;28;20416;-76
2023/12/31 03:58:46;;;;;;;22.95;12.98;;;;;;;10.92;65.67;101114.88;5088108;28;20480;-75
2023/12/31 04:01:11;;;;;;;20.55;13.07;;;;;;;10.90;65.96;101117.72;5087646;28;20024;-76
2023/12/31 04:03:39;;;;;;;21.27;12.05;;;;;;;10.89;66.00;101118.69;5087889;28;20025;-77
2023/12/31 04:06:04;;;;;;;22.70;14.32;;;;;;;10.90;65.51;101119.53;5087773;28;20024;-75
2023/12/31 04:08:30;;;;;;;18.38;12.52;;;;;;;10.86;66.34;101126.97;5087991;28;20115;-75
2023/12/31 04:10:55;;;;;;;20.73;12.43;;;;;;;10.72;66.59;101102.94;5087772;28;20107;-76
2023/12/31 04:13:21;;;;;;;20.23;12.57;;;;;;;10.90;66.45;101131.16;5087901;28;20051;-76
2023/12/31 04:15:47;;;;;;;17.42;11.77;;;;;;;10.82;66.54;101114.72;5088176;28;20020;-76
2023/12/31 04:18:12;;;;;;;22.33;12.73;;;;;;;10.97;66.51;101139.66;5088063;28;20108;-77
2023/12/31 04:20:38;;;;;;;18.33;12.15;;;;;;;10.97;66.76;101138.78;5090030;28;20123;-76
2023/12/31 04:23:03;;;;;;;18.30;11.63;;;;;;;10.87;66.39;101112.56;5094179;28;20025;-76
2023/12/31 04:25:29;;;;;;;24.48;13.43;;;;;;;11.02;66.07;101136.59;5090787;28;20083;-77
2023/12/31 04:27:54;;;;;;;19.63;14.10;;;;;;;11.06;65.75;101135.41;5087735;28;20044;-76
2023/12/31 04:30:20;;;;;;;19.20;13.02;;;;;;;11.03;65.84;101143.72;5087461;28;20532;-78
2023/12/31 04:32:45;;;;;;;20.17;13.38;;;;;;;11.08;65.91;101141.50;5087278;28;20515;-75
2023/12/31 04:35:11;;;;;;;20.40;13.40;;;;;;;11.05;66.05;101136.38;5087712;28;20028;-76
2023/12/31 04:37:37;;;;;;;22.90;14.52;;;;;;;10.95;66.17;101114.66;5084983;28;20514;-76
2023/12/31 04:40:05;;;;;;;18.27;13.98;;;;;;;11.13;65.53;101142.06;5087729;28;20020;-77
2023/12/31 04:42:30;;;;;;;19.75;13.25;;;;;;;11.13;65.92;101147.44;5087681;28;20106;-76
2023/12/31 04:44:56;;;;;;;18.77;13.50;;;;;;;11.11;65.66;101149.38;5087716;28;20114;-76
2023/12/31 04:47:21;;;;;;;16.95;12.50;;;;;;;11.10;65.67;101147.66;5091403;28;20103;-75
2023/12/31 04:49:47;;;;;;;19.73;13.32;;;;;;;10.97;65.53;101145.03;5089742;28;20039;-75
2023/12/31 04:52:12;;;;;;;23.33;13.95;;;;;;;10.99;65.86;101144.91;5091698;28;20520;-75
2023/12/31 04:54:39;;;;;;;20.42;13.80;;;;;;;10.87;65.99;101131.41;5091036;28;20035;-76
2023/12/31 04:57:04;;;;;;;21.25;12.65;;;;;;;11.06;66.25;101162.31;5091384;28;20032;-76
2023/12/31 04:59:30;;;;;;;21.83;15.23;;;;;;;11.01;66.33;101167.19;5090847;28;20024;-77
2023/12/31 05:01:55;;;;;;;35.22;14.05;;;;;;;11.05;65.80;101163.28;5091401;28;20403;-76
2023/12/31 05:04:21;;;;;;;21.33;14.43;;;;;;;10.98;65.94;101148.59;5091211;28;20123;-77
2023/12/31 05:06:46;;;;;;;18.05;13.30;;;;;;;10.95;66.24;101149.66;5091681;28;20060;-77
2023/12/31 05:09:12;;;;;;;25.02;14.75;;;;;;;10.97;65.92;101149.53;5071797;28;20043;-75
2023/12/31 05:11:38;;;;;;;24.90;14.40;;;;;;;11.07;66.39;101156.81;5092792;28;20105;-76
2023/12/31 05:14:04;;;;;;;23.98;15.00;;;;;;;11.02;66.11;101152.75;5096949;28;20404;-76
2023/12/31 05:16:33;;;;;;;22.13;15.27;;;;;;;11.03;66.28;101157.16;5093027;28;20132;-75
2023/12/31 05:19:00;;;;;;;29.60;16.42;;;;;;;10.99;65.90;101137.69;5090750;28;20046;-76
2023/12/31 05:21:26;;;;;;;27.02;16.35;;;;;;;11.04;65.98;101145.44;5090471;28;20028;-75
2023/12/31 05:23:52;;;;;;;25.95;15.63;;;;;;;10.94;66.02;101150.66;5090583;28;20024;-76
2023/12/31 05:26:18;;;;;;;26.85;15.57;;;;;;;11.02;65.84;101158.13;5089059;28;20040;-76
2023/12/31 05:28:43;;;;;;;27.55;15.20;;;;;;;11.05;65.80;101160.59;5090186;28;20032;-76
2023/12/31 05:31:10;;;;;;;24.85;16.42;;;;;;;11.01;65.78;101156.44;5090712;28;20024;-76
2023/12/31 05:33:36;;;;;;;24.15;16.38;;;;;;;10.83;65.98;101127.22;5090235;28;20113;-75
2023/12/31 05:36:02;;;;;;;30.30;16.88;;;;;;;10.77;65.59;101126.81;5090268;28;20028;-75
2023/12/31 05:38:27;;;;;;;31.17;17.38;;;;;;;10.90;65.56;101160.78;5090214;28;20024;-76
2023/12/31 05:40:53;;;;;;;34.60;17.77;;;;;;;10.81;65.76;101166.84;5090089;28;20496;-75
2023/12/31 05:43:18;;;;;;;29.42;17.60;;;;;;;10.68;66.09;101147.19;5089988;28;20129;-76
2023/12/31 05:45:44;;;;;;;27.92;16.25;;;;;;;10.78;66.39;101161.69;5090206;28;20024;-77
2023/12/31 05:48:09;;;;;;;35.30;16.05;;;;;;;10.83;66.59;101175.66;5090356;28;20032;-76
2023/12/31 05:50:35;;;;;;;41.22;17.00;;;;;;;10.84;66.47;101177.38;5090215;28;20060;-75
2023/12/31 05:53:00;;;;;;;34.28;15.30;;;;;;;10.51;66.74;101117.13;5090040;28;20529;-77
2023/12/31 05:55:26;;;;;;;22.70;15.82;;;;;;;10.86;66.41;101169.16;5089953;28;20479;-76
2023/12/31 05:57:51;;;;;;;27.92;15.30;;;;;;;10.87;66.52;101181.66;5089886;28;20039;-75
2023/12/31 06:00:17;;;;;;;25.92;15.43;;;;;;;10.76;66.43;101187.81;5089901;28;20027;-74
2023/12/31 06:02:43;;;;;;;31.98;16.08;;;;;;;10.72;66.63;101189.03;5090237;28;20035;-78
2023/12/31 06:05:09;;;;;;;34.50;17.35;;;;;;;10.63;66.67;101189.72;5090370;28;20457;-76
2023/12/31 06:07:34;;;;;;;32.92;16.70;;;;;;;10.65;66.74;101193.13;5093789;28;20091;-77
2023/12/31 06:10:00;;;;;;;29.50;16.02;;;;;;;10.52;67.21;101186.91;5096219;28;20511;-76
2023/12/31 06:12:26;;;;;;;29.63;17.60;;;;;;;10.41;67.77;101189.53;5089225;28;20032;-74
2023/12/31 06:14:51;;;;;;;36.55;17.48;;;;;;;10.56;67.63;101192.94;5089601;28;20059;-76
2023/12/31 06:17:17;;;;;;;33.67;18.80;;;;;;;10.53;67.53;101182.41;5089466;28;20107;-76
2023/12/31 06:19:43;;;;;;;24.92;17.40;;;;;;;10.57;68.08;101187.47;5089151;28;20058;-75
2023/12/31 06:22:08;;;;;;;26.25;15.88;;;;;;;10.61;67.89;101197.00;5088770;28;20031;-75
2023/12/31 06:24:34;;;;;;;26.63;17.08;;;;;;;10.63;68.02;101205.84;5088956;28;20023;-76
2023/12/31 06:27:00;;;;;;;33.63;21.40;;;;;;;10.59;67.94;101198.97;5088838;28;20048;-76
2023/12/31 06:29:26;;;;;;;44.08;33.10;;;;;;;10.50;67.85;101183.50;5089218;28;20036;-76
2023/12/31 06:31:52;;;;;;;36.00;26.23;;;;;;;10.66;67.97;101205.63;5089353;28;20028;-74
2023/12/31 06:34:17;;;;;;;31.10;19.05;;;;;;;10.76;67.51;101206.66;5088794;28;20059;-77
2023/12/31 06:36:43;;;;;;;31.33;21.55;;;;;;;10.72;67.95;101204.31;5086562;28;20505;-77
2023/12/31 06:39:12;;;;;;;41.80;22.35;;;;;;;10.70;67.58;101207.09;5088272;28;20070;-77
2023/12/31 06:41:37;;;;;;;45.50;21.83;;;;;;;10.82;67.41;101216.97;5087552;28;20396;-75
2023/12/31 06:44:03;;;;;;;43.35;23.38;;;;;;;10.89;67.46;101220.94;5088637;28;20039;-77
2023/12/31 06:46:29;;;;;;;39.70;24.92;;;;;;;10.96;67.10;101223.19;5088819;28;20119;-75
2023/12/31 06:48:55;;;;;;;35.00;22.05;;;;;;;11.00;66.58;101214.78;5088953;28;20030;-74
2023/12/31 06:51:20;;;;;;;34.67;21.42;;;;;;;11.05;66.44;101217.97;5088973;28;20071;-73
2023/12/31 06:53:45;;;;;;;32.55;19.58;;;;;;;11.09;66.54;101216.78;5089697;28;20034;-76
2023/12/31 06:56:11;;;;;;;33.08;20.15;;;;;;;11.14;66.63;101221.81;5090090;28;20058;-76
2023/12/31 06:58:38;;;;;;;40.55;23.73;;;;;;;11.02;66.56;101217.34;5089725;28;20024;-77
2023/12/31 07:01:04;;;;;;;47.17;22.40;;;;;;;11.14;66.09;101246.03;5087983;28;20032;-75
2023/12/31 07:03:29;;;;;;;40.33;23.08;;;;;;;11.01;66.30;101221.03;5088747;28;20495;-75
2023/12/31 07:05:55;;;;;;;32.60;20.50;;;;;;;11.02;65.70;101231.66;5088859;28;20024;-76
2023/12/31 07:08:20;;;;;;;40.05;20.80;;;;;;;11.01;65.99;101226.41;5086867;28;20027;-75
2023/12/31 07:10:46;;;;;;;40.85;20.98;;;;;;;11.07;66.38;101239.41;5088444;28;20028;-76
2023/12/31 07:13:12;;;;;;;42.17;21.10;;;;;;;10.83;65.88;101213.31;5087352;28;20511;-77
2023/12/31 07:15:38;;;;;;;46.88;22.55;;;;;;;11.07;66.33;101245.63;5088341;28;20512;-74
2023/12/31 07:18:04;;;;;;;56.80;26.73;;;;;;;11.08;66.29;101238.44;5088358;28;20024;-77
2023/12/31 07:20:29;;;;;;;60.67;29.65;;;;;;;11.15;66.11;101239.69;5088205;28;20056;-78
2023/12/31 07:22:55;;;;;;;39.00;25.33;;;;;;;11.09;66.10;101234.78;5088746;28;20039;-76
2023/12/31 07:25:21;;;;;;;36.65;22.02;;;;;;;11.01;66.02;101218.34;5088130;28;20074;-78
2023/12/31 07:27:47;;;;;;;34.15;22.55;;;;;;;11.19;66.48;101247.41;5088245;28;20027;-77
2023/12/31 07:30:13;;;;;;;35.08;20.98;;;;;;;11.24;65.94;101249.78;5088554;28;20169;-77
2023/12/31 07:32:38;;;;;;;38.75;20.83;;;;;;;11.22;66.25;101243.66;5088587;28;20031;-77
2023/12/31 07:35:05;;;;;;;36.88;21.17;;;;;;;11.17;66.10;101237.75;5088426;28;20039;-76
2023/12/31 07:37:30;;;;;;;40.13;21.77;;;;;;;11.15;65.35;101237.00;5088717;28;20054;-76
2023/12/31 07:39:57;;;;;;;39.45;22.90;;;;;;;11.34;65.58;101264.28;5089086;28;20028;-80
2023/12/31 07:42:23;;;;;;;47.67;24.13;;;;;;;11.24;65.43;101257.88;5088045;28;20024;-76
2023/12/31 07:44:48;;;;;;;41.58;22.80;;;;;;;11.31;65.86;101268.06;5094680;28;20020;-76
2023/12/31 07:47:14;;;;;;;37.08;23.10;;;;;;;11.34;65.69;101278.59;5093853;28;20451;-80
2023/12/31 07:49:39;;;;;;;50.75;24.00;;;;;;;11.21;65.10;101266.16;5089197;28;20061;-77
2023/12/31 07:52:05;;;;;;;43.97;25.70;;;;;;;11.34;65.54;101273.22;5090542;28;20024;-78
2023/12/31 07:54:31;;;;;;;50.55;25.98;;;;;;;11.35;65.63;101264.16;5088894;28;20032;-79
2023/12/31 07:56:57;;;;;;;48.90;27.08;;;;;;;11.45;65.21;101291.28;5087886;28;20128;-76
2023/12/31 07:59:23;;;;;;;55.70;25.33;;;;;;;11.55;65.51;101291.47;5088540;28;20024;-77
2023/12/31 08:01:49;;;;;;;46.35;31.50;;;;;;;11.59;65.68;101288.41;5087554;28;20062;-77
2023/12/31 08:04:14;;;;;;;46.67;28.10;;;;;;;11.64;65.56;101286.25;5088080;28;20028;-74
2023/12/31 08:06:40;;;;;;;52.22;29.02;;;;;;;11.69;64.86;101278.66;5087333;28;20451;-75
2023/12/31 08:09:05;;;;;;;45.03;26.50;;;;;;;11.83;64.87;101294.66;5087952;28;20066;-77
2023/12/31 08:11:31;;;;;;;42.00;26.63;;;;;;;11.92;64.50;101288.59;5087113;28;20028;-74
2023/12/31 08:13:57;;;;;;;47.08;25.88;;;;;;;11.80;64.01;101265.25;5087862;28;20073;-77
2023/12/31 08:16:22;;;;;;;50.20;26.80;;;;;;;12.02;63.81;101292.28;5087866;28;20032;-77
2023/12/31 08:18:48;;;;;;;47.83;27.25;;;;;;;12.17;64.12;101289.41;5087569;28;20020;-75
2023/12/31 08:21:13;;;;;;;46.28;26.30;;;;;;;12.28;64.02;101300.22;5090435;28;20053;-76
2023/12/31 08:23:39;;;;;;;47.72;25.95;;;;;;;12.41;63.42;101295.59;5091946;28;20023;-77
2023/12/31 08:26:05;;;;;;;53.70;29.10;;;;;;;12.50;63.09;101290.34;5091510;28;20053;-75
2023/12/31 08:28:31;;;;;;;43.15;24.27;;;;;;;12.65;62.36;101290.09;5092573;28;20229;-76
2023/12/31 08:30:56;;;;;;;36.63;21.83;;;;;;;12.59;62.27;101269.84;5092200;28;20040;-75
2023/12/31 08:33:22;;;;;;;45.28;25.38;;;;;;;12.87;61.80;101295.50;5094468;28;20020;-78
2023/12/31 08:35:48;;;;;;;42.20;24.58;;;;;;;13.04;61.47;101301.25;5103893;28;20054;-80
2023/12/31 08:38:14;;;;;;;44.70;21.33;;;;;;;13.16;60.54;101294.03;5096573;28;20106;-78
2023/12/31 08:40:40;;;;;;;34.80;23.70;;;;;;;13.29;60.34;101285.78;5091758;28;20040;-81
2023/12/31 08:43:06;;;;;;;49.33;23.63;;;;;;;13.37;59.85;101283.28;5092319;28;20429;-77
2023/12/31 08:45:36;;;;;;;56.47;25.02;;;;;;;13.51;59.82;101281.19;5091918;28;20035;-77
2023/12/31 08:48:03;;;;;;;44.85;24.85;;;;;;;13.54;59.21;101262.00;5091679;28;20057;-79
2023/12/31 08:50:29;;;;;;;44.30;23.58;;;;;;;13.84;58.87;101277.47;5091249;28;20032;-76
2023/12/31 08:52:54;;;;;;;48.35;25.92;;;;;;;13.87;58.43;101252.88;5090851;28;20020;-76
2023/12/31 08:55:20;;;;;;;41.42;24.33;;;;;;;14.02;57.50;101275.06;5090462;28;20077;-77
2023/12/31 08:57:47;;;;;;;39.60;22.08;;;;;;;14.09;57.41;101274.41;5091072;28;20079;-76
2023/12/31 09:00:13;;;;;;;32.03;22.27;;;;;;;14.15;57.20;101270.31;5090894;28;20024;-75
2023/12/31 09:02:39;;;;;;;40.45;22.65;;;;;;;14.11;56.80;101252.63;5091378;28;20081;-77
2023/12/31 09:05:05;;;;;;;40.53;22.67;;;;;;;14.38;56.78;101271.03;5091455;28;20040;-75
2023/12/31 09:07:34;;;;;;;44.47;24.38;;;;;;;14.39;56.51;101256.53;5090575;28;20024;-77
2023/12/31 09:10:00;;;;;;;34.13;22.55;;;;;;;14.63;56.57;101270.63;5090908;28;20028;-77
2023/12/31 09:12:26;;;;;;;45.58;24.60;;;;;;;14.71;56.26;101260.81;5091328;28;20028;-78
2023/12/31 09:14:51;;;;;;;46.25;25.17;;;;;;;14.80;55.87;101255.59;5091283;28;20610;-78
2023/12/31 09:17:17;;;;;;;50.70;25.95;;;;;;;14.78;55.26;101247.59;5091542;28;20028;-77
2023/12/31 09:19:42;;;;;;;44.85;23.50;;;;;;;14.98;55.24;101262.91;5091563;28;20111;-76
2023/12/31 09:22:08;;;;;;;39.30;23.92;;;;;;;15.02;54.77;101258.94;5091419;28;20110;-77
2023/12/31 09:24:35;;;;;;;58.25;26.60;;;;;;;14.99;55.00;101234.84;5097345;28;20031;-76
2023/12/31 09:27:00;;;;;;;52.08;28.08;;;;;;;15.19;54.42;101269.13;5094629;28;20079;-77
2023/12/31 09:29:26;;;;;;;42.38;24.85;;;;;;;15.21;54.26;101260.84;5090352;28;20109;-76
2023/12/31 09:31:51;;;;;;;41.47;26.13;;;;;;;15.27;54.24;101244.88;5090399;28;20696;-78
2023/12/31 09:34:17;;;;;;;55.22;26.75;;;;;;;15.22;54.06;101230.91;5090057;28;20024;-77
2023/12/31 09:36:42;;;;;;;38.60;21.52;;;;;;;15.37;53.34;101250.34;5089618;28;20063;-78
2023/12/31 09:39:08;;;;;;;33.13;21.98;;;;;;;15.37;53.91;101235.91;5090281;28;20543;-76
2023/12/31 09:41:36;;;;;;;37.25;22.45;;;;;;;15.50;53.35;101241.97;5089715;28;20031;-78
2023/12/31 09:44:03;;;;;;;44.85;21.20;;;;;;;15.56;53.35;101235.97;5090558;28;20415;-77
2023/12/31 09:46:31;;;;;;;53.53;23.33;;;;;;;15.70;52.95;101240.97;5090393;28;20032;-76
2023/12/31 09:48:59;;;;;;;38.88;20.55;;;;;;;15.74;52.66;101243.25;5090379;28;20024;-78
2023/12/31 09:51:26;;;;;;;42.17;20.42;;;;;;;15.85;52.20;101236.81;5090029;28;20075;-76
2023/12/31 09:53:54;;;;;;;31.35;18.73;;;;;;;15.87;51.59;101237.50;5090434;28;20085;-77
2023/12/31 09:56:22;;;;;;;24.35;15.95;;;;;;;15.88;50.81;101238.38;5089634;28;20508;-77
2023/12/31 09:58:53;;;;;;;26.30;17.30;;;;;;;15.93;50.72;101234.22;5089958;28;20039;-75
2023/12/31 10:01:19;;;;;;;36.60;18.80;;;;;;;15.87;50.42;101234.81;5089211;28;20020;-76
2023/12/31 10:03:46;;;;;;;26.77;15.77;;;;;;;15.81;50.40;101223.69;5088734;28;20032;-75
2023/12/31 10:06:12;;;;;;;29.05;16.48;;;;;;;15.71;50.48;101207.44;5089820;28;20031;-75
2023/12/31 10:08:39;;;;;;;26.38;16.25;;;;;;;15.71;50.17;101221.00;5090454;28;20126;-76
2023/12/31 10:11:06;;;;;;;32.33;16.25;;;;;;;15.66;50.48;101225.97;5089937;28;20016;-75
2023/12/31 10:13:31;;;;;;;26.13;15.40;;;;;;;15.65;50.55;101227.84;5093850;28;20110;-75
2023/12/31 10:15:57;;;;;;;27.17;15.32;;;;;;;15.52;50.27;101215.56;5094997;28;20062;-74
2023/12/31 10:18:26;;;;;;;27.17;15.02;;;;;;;15.59;50.65;101219.44;5089602;28;20051;-76
2023/12/31 10:20:52;;;;;;;26.20;14.52;;;;;;;15.55;50.60;101209.84;5086667;28;20039;-77
2023/12/31 10:23:18;;;;;;;30.67;13.90;;;;;;;15.34;50.33;101200.97;5089309;28;20028;-76
2023/12/31 10:25:44;;;;;;;27.33;15.13;;;;;;;15.26;50.21;101194.38;5089120;28;20048;-77
2023/12/31 10:28:09;;;;;;;19.00;12.73;;;;;;;15.22;50.32;101187.56;5089297;28;20023;-74
2023/12/31 10:30:38;;;;;;;27.20;13.98;;;;;;;15.32;50.66;101213.81;5089427;28;20031;-77
2023/12/31 10:33:18;;;;;;;41.85;16.35;;;;;;;15.16;50.86;101193.53;5088997;28;20043;-76
2023/12/31 10:35:44;;;;;;;59.58;17.33;;;;;;;15.23;51.03;101194.66;5089463;28;20028;-78
2023/12/31 10:38:10;;;;;;;32.50;16.55;;;;;;;15.36;50.82;101215.22;5088811;28;20020;-77
2023/12/31 10:40:36;;;;;;;19.15;11.50;;;;;;;15.36;50.02;101216.09;5088558;28;20020;-77
2023/12/31 10:43:06;;;;;;;21.52;12.45;;;;;;;15.35;49.65;101198.09;5088518;28;20053;-76
2023/12/31 10:45:33;;;;;;;28.10;14.82;;;;;;;15.27;50.07;101201.53;5088532;28;20032;-76
2023/12/31 10:48:01;;;;;;;27.63;14.13;;;;;;;15.30;50.13;101194.09;5089028;28;20031;-77
2023/12/31 10:50:27;;;;;;;22.33;13.52;;;;;;;15.27;50.40;101196.09;5089255;28;20404;-76
2023/12/31 10:52:57;;;;;;;35.50;18.20;;;;;;;15.36;50.05;101193.53;5089115;28;20031;-76
2023/12/31 10:55:23;;;;;;;17.65;12.20;;;;;;;15.18;50.07;101169.00;5088754;28;20026;-78
2023/12/31 10:57:50;;;;;;;17.35;12.20;;;;;;;15.27;50.13;101185.25;5089139;28;20027;-77
2023/12/31 11:00:18;;;;;;;26.70;15.35;;;;;;;15.29;50.35;101178.84;5089674;28;20036;-79
2023/12/31 11:02:44;;;;;;;28.65;15.02;;;;;;;15.36;50.70;101166.44;5094879;28;20111;-78